Terminal Aerodrome Forecast
Issued by NWS

Home | Current Version | Previous Version | Text Only | Print | Product List | Glossary On
Versions: 1 2 3 4 5 6 7 8 9 10 11 12 13 14 15 16 17
000
FTUS44 KTSA 210500
TAFBVO
TAF
KBVO 210520Z 2106/2206 17003KT P6SM SCT050 BKN120
     FM210900 00000KT P6SM BKN020
     FM211300 20005KT P6SM OVC015
      TEMPO 2113/2117 5SM -SHRA OVC008
     FM211900 29006KT P6SM BKN030
     FM220100 34003KT P6SM SKC=

USA.gov is the U.S. government's official web portal to all federal, state and local government web resources and services.